createdAt,value
2023-01-25T00:02:19.997Z,14.43
2023-01-25T00:04:46.768Z,15.30
2023-01-25T00:07:13.524Z,14.00
2023-01-25T00:09:40.271Z,15.80
2023-01-25T00:12:07.003Z,18.00
2023-01-25T00:14:33.752Z,19.58
2023-01-25T00:17:00.484Z,17.38
2023-01-25T00:19:27.279Z,17.98
2023-01-25T00:21:53.995Z,17.70
2023-01-25T00:24:23.044Z,16.38
2023-01-25T00:26:49.899Z,17.05
2023-01-25T00:29:16.739Z,15.80
2023-01-25T00:32:02.753Z,16.33
2023-01-25T00:37:20.822Z,13.70
2023-01-25T00:39:47.864Z,13.98
2023-01-25T00:42:16.869Z,14.30
2023-01-25T00:44:43.907Z,13.05
2023-01-25T00:47:11.679Z,13.50
2023-01-25T00:49:40.050Z,13.00
2023-01-25T00:52:07.763Z,12.82
2023-01-25T00:54:34.523Z,12.85
2023-01-25T00:57:01.298Z,13.55
2023-01-25T00:59:28.340Z,13.10
2023-01-25T01:01:55.326Z,13.90
2023-01-25T01:04:25.013Z,13.30
2023-01-25T01:06:53.899Z,12.80
2023-01-25T01:09:22.698Z,12.57
2023-01-25T01:11:50.037Z,13.13
2023-01-25T01:14:17.239Z,14.15
2023-01-25T01:16:44.084Z,13.38
2023-01-25T01:19:11.097Z,13.77
2023-01-25T01:21:38.315Z,13.25
2023-01-25T01:24:05.557Z,13.35
2023-01-25T01:26:32.334Z,13.70
2023-01-25T01:28:59.819Z,13.88
2023-01-25T01:31:26.780Z,13.55
2023-01-25T01:33:56.387Z,14.02
2023-01-25T01:36:25.327Z,14.48
2023-01-25T01:38:52.442Z,13.27
2023-01-25T01:41:20.497Z,13.07
2023-01-25T01:43:47.883Z,13.52
2023-01-25T01:46:20.411Z,13.18
2023-01-25T01:49:18.656Z,13.55
2023-01-25T01:52:05.406Z,14.20
2023-01-25T01:54:41.949Z,14.40
2023-01-25T01:57:14.381Z,14.20
2023-01-25T01:59:50.338Z,13.70
2023-01-25T02:02:17.205Z,13.80
2023-01-25T02:04:48.657Z,14.30
2023-01-25T02:07:36.303Z,13.95
2023-01-25T02:10:06.632Z,13.93
2023-01-25T02:12:33.605Z,14.40
2023-01-25T02:15:00.407Z,15.40
2023-01-25T02:17:30.199Z,14.80
2023-01-25T02:20:03.260Z,14.82
2023-01-25T02:22:54.409Z,14.15
2023-01-25T02:25:21.814Z,14.18
2023-01-25T02:28:02.124Z,15.38
2023-01-25T02:30:28.954Z,14.60
2023-01-25T02:32:55.633Z,15.18
2023-01-25T02:35:25.299Z,14.68
2023-01-25T02:37:52.446Z,14.90
2023-01-25T02:40:19.280Z,16.88
2023-01-25T02:42:46.381Z,14.75
2023-01-25T02:45:17.884Z,16.20
2023-01-25T02:47:44.900Z,16.95
2023-01-25T02:50:13.241Z,16.20
2023-01-25T02:52:41.145Z,16.88
2023-01-25T02:55:08.897Z,17.55
2023-01-25T02:57:35.816Z,16.98
2023-01-25T03:00:03.949Z,15.68
2023-01-25T03:02:30.676Z,17.17
2023-01-25T03:04:57.461Z,16.35
2023-01-25T03:07:24.267Z,16.65
2023-01-25T03:09:50.969Z,16.83
2023-01-25T03:12:17.602Z,18.45
2023-01-25T03:14:44.571Z,16.77
2023-01-25T03:17:11.591Z,16.15
2023-01-25T03:19:38.368Z,16.58
2023-01-25T03:22:06.771Z,16.17
2023-01-25T03:24:33.579Z,17.23
2023-01-25T03:27:14.131Z,15.85
2023-01-25T03:29:41.871Z,16.80
2023-01-25T03:32:09.079Z,16.10
2023-01-25T03:34:36.487Z,15.77
2023-01-25T03:37:03.747Z,17.33
2023-01-25T03:39:30.629Z,16.23
2023-01-25T03:41:57.619Z,16.08
2023-01-25T03:44:24.614Z,14.48
2023-01-25T03:46:51.333Z,14.25
2023-01-25T03:49:18.711Z,14.50
2023-01-25T03:51:45.491Z,14.60
2023-01-25T03:54:12.296Z,14.93
2023-01-25T03:56:39.393Z,14.18
2023-01-25T03:59:06.324Z,14.63
2023-01-25T04:01:33.282Z,15.35
2023-01-25T04:04:00.101Z,15.75
2023-01-25T04:06:26.852Z,17.02
2023-01-25T04:08:53.552Z,16.08
2023-01-25T04:11:20.583Z,16.85
2023-01-25T04:13:47.619Z,15.95
2023-01-25T04:16:14.404Z,16.50
2023-01-25T04:18:41.319Z,15.13
2023-01-25T04:21:08.243Z,15.20
2023-01-25T04:23:34.924Z,16.35
2023-01-25T04:26:05.870Z,15.98
2023-01-25T04:28:34.404Z,16.35
2023-01-25T04:31:03.475Z,16.05
2023-01-25T04:33:30.543Z,16.23
2023-01-25T04:35:57.499Z,16.20
2023-01-25T04:38:24.494Z,16.55
2023-01-25T04:40:52.310Z,16.67
2023-01-25T04:43:20.893Z,15.77
2023-01-25T04:45:47.900Z,17.35
2023-01-25T04:48:15.263Z,16.98
2023-01-25T04:50:43.159Z,16.40
2023-01-25T04:53:11.705Z,16.60
2023-01-25T04:55:38.539Z,16.75
2023-01-25T04:58:05.816Z,17.05
2023-01-25T05:00:33.002Z,16.08
2023-01-25T05:02:59.806Z,17.40
2023-01-25T05:05:26.657Z,17.60
2023-01-25T05:07:53.383Z,17.77
2023-01-25T05:10:20.331Z,18.00
2023-01-25T05:12:47.031Z,19.50
2023-01-25T05:15:14.074Z,18.25
2023-01-25T05:17:40.977Z,17.60
2023-01-25T05:20:08.504Z,18.48
2023-01-25T05:22:35.225Z,18.50
2023-01-25T05:25:02.948Z,17.98
2023-01-25T05:27:29.811Z,18.00
2023-01-25T05:29:57.378Z,19.95
2023-01-25T05:32:25.239Z,19.40
2023-01-25T05:34:52.513Z,20.23
2023-01-25T05:37:20.695Z,20.23
2023-01-25T05:39:47.609Z,20.65
2023-01-25T05:42:16.877Z,20.02
2023-01-25T05:44:47.365Z,20.42
2023-01-25T05:47:16.542Z,22.88
2023-01-25T05:49:43.669Z,21.60
2023-01-25T05:52:17.372Z,21.17
2023-01-25T05:54:44.435Z,20.70
2023-01-25T05:57:13.275Z,20.08
2023-01-25T05:59:40.020Z,21.85
2023-01-25T06:02:06.920Z,22.35
2023-01-25T06:04:33.791Z,21.02
2023-01-25T06:07:00.487Z,21.25
2023-01-25T06:09:27.251Z,20.25
2023-01-25T06:11:54.037Z,20.70
2023-01-25T06:14:20.704Z,20.58
2023-01-25T06:16:47.378Z,21.50
2023-01-25T06:19:14.380Z,20.77
2023-01-25T06:21:41.249Z,21.80
2023-01-25T06:24:08.274Z,22.30
2023-01-25T06:26:35.004Z,23.15
2023-01-25T06:29:01.790Z,21.70
2023-01-25T06:31:28.674Z,21.85
2023-01-25T06:33:55.450Z,21.33
2023-01-25T06:36:22.937Z,20.85
2023-01-25T06:38:51.373Z,22.05
2023-01-25T06:41:19.381Z,21.45
2023-01-25T06:43:47.120Z,21.75
2023-01-25T06:46:14.076Z,21.75
2023-01-25T06:48:42.888Z,22.00
2023-01-25T06:51:12.838Z,21.17
2023-01-25T06:53:42.481Z,20.05
2023-01-25T06:56:15.371Z,22.48
2023-01-25T06:58:42.227Z,21.33
2023-01-25T07:01:16.570Z,21.45
2023-01-25T07:03:43.439Z,23.67
2023-01-25T07:06:11.382Z,21.65
2023-01-25T07:08:39.667Z,22.63
2023-01-25T07:11:09.527Z,22.25
2023-01-25T07:13:36.282Z,19.95
2023-01-25T07:16:05.965Z,20.60
2023-01-25T07:18:33.679Z,20.15
2023-01-25T07:21:12.902Z,22.73
2023-01-25T07:23:40.041Z,23.20
2023-01-25T07:26:12.944Z,21.45
2023-01-25T07:28:39.660Z,22.88
2023-01-25T07:31:07.229Z,21.40
2023-01-25T07:33:34.856Z,23.65
2023-01-25T07:36:08.848Z,24.23
2023-01-25T07:38:36.474Z,22.83
2023-01-25T07:41:03.738Z,24.17
2023-01-25T07:43:30.910Z,23.65
2023-01-25T07:46:02.859Z,23.35
2023-01-25T07:48:29.747Z,22.00
2023-01-25T07:51:11.839Z,22.48
2023-01-25T07:53:43.421Z,22.40
2023-01-25T07:56:12.589Z,22.13
2023-01-25T07:58:40.075Z,22.25
2023-01-25T08:01:15.180Z,23.23
2023-01-25T08:03:43.878Z,22.85
2023-01-25T08:06:11.716Z,22.52
2023-01-25T08:08:49.661Z,21.10
2023-01-25T08:11:22.430Z,22.45
2023-01-25T08:13:49.914Z,21.85
2023-01-25T08:16:18.783Z,23.83
2023-01-25T08:18:57.076Z,22.77
2023-01-25T08:21:25.577Z,21.80
2023-01-25T08:23:52.465Z,23.13
2023-01-25T08:26:19.299Z,22.00
2023-01-25T08:28:48.752Z,23.80
2023-01-25T08:31:19.049Z,22.33
2023-01-25T08:33:47.028Z,21.45
2023-01-25T08:36:15.513Z,23.35
2023-01-25T08:38:42.582Z,23.85
2023-01-25T08:41:12.111Z,23.38
2023-01-25T08:43:38.952Z,23.08
2023-01-25T08:46:06.333Z,23.63
2023-01-25T08:48:33.421Z,23.38
2023-01-25T08:51:01.185Z,23.67
2023-01-25T08:53:29.182Z,22.10
2023-01-25T08:56:04.941Z,23.30
2023-01-25T08:58:31.972Z,22.25
2023-01-25T09:01:07.517Z,24.25
2023-01-25T09:03:39.715Z,22.52
2023-01-25T09:06:07.749Z,23.20
2023-01-25T09:08:35.306Z,22.42
2023-01-25T09:11:03.985Z,22.73
2023-01-25T09:13:30.701Z,23.13
2023-01-25T09:16:09.921Z,22.35
2023-01-25T09:18:38.144Z,22.33
2023-01-25T09:21:17.126Z,22.58
2023-01-25T09:23:51.517Z,24.00
2023-01-25T09:26:31.522Z,22.77
2023-01-25T09:28:59.323Z,22.63
2023-01-25T09:31:28.278Z,21.92
2023-01-25T09:33:55.152Z,22.88
2023-01-25T09:36:21.849Z,21.85
2023-01-25T09:38:48.658Z,21.98
2023-01-25T09:41:30.372Z,22.70
2023-01-25T09:44:15.874Z,21.65
2023-01-25T09:46:50.221Z,22.27
2023-01-25T09:50:04.633Z,21.42
2023-01-25T09:52:40.297Z,21.35
2023-01-25T09:57:41.941Z,21.25
2023-01-25T10:00:30.865Z,22.17
2023-01-25T10:03:05.822Z,22.13
2023-01-25T10:05:42.982Z,21.05
2023-01-25T10:08:19.569Z,22.83
2023-01-25T10:10:48.993Z,22.35
2023-01-25T10:13:19.363Z,20.77
2023-01-25T10:16:24.447Z,21.55
2023-01-25T10:19:14.816Z,21.93
2023-01-25T10:21:45.619Z,24.45
2023-01-25T10:24:34.613Z,22.80
2023-01-25T10:27:20.044Z,23.23
2023-01-25T10:29:48.413Z,23.83
2023-01-25T10:32:22.411Z,24.48
2023-01-25T10:34:57.087Z,23.95
2023-01-25T10:37:30.937Z,24.73
2023-01-25T10:40:21.233Z,24.77
2023-01-25T10:42:51.788Z,24.60
2023-01-25T10:45:18.713Z,23.30
2023-01-25T10:47:57.762Z,21.95
2023-01-25T10:50:42.910Z,21.75
2023-01-25T10:53:24.372Z,21.13
2023-01-25T10:56:15.168Z,20.88
2023-01-25T10:58:46.133Z,22.67
2023-01-25T11:01:30.547Z,20.92
2023-01-25T11:03:59.233Z,21.85
2023-01-25T11:06:37.994Z,20.35
2023-01-25T11:09:22.699Z,22.02
2023-01-25T11:12:00.497Z,22.75
2023-01-25T11:14:29.848Z,22.20
2023-01-25T11:16:58.285Z,23.40
2023-01-25T11:19:36.774Z,25.08
2023-01-25T11:22:28.618Z,22.52
2023-01-25T11:24:55.655Z,23.27
2023-01-25T11:27:24.893Z,21.65
2023-01-25T11:30:16.296Z,18.50
2023-01-25T11:32:43.347Z,17.52
2023-01-25T11:35:15.931Z,16.90
2023-01-25T11:38:08.399Z,17.60
2023-01-25T11:41:08.182Z,17.08
2023-01-25T11:43:46.886Z,15.20
2023-01-25T11:46:34.820Z,14.75
2023-01-25T11:49:29.716Z,13.65
2023-01-25T11:52:02.243Z,14.32
2023-01-25T11:54:41.488Z,15.05
2023-01-25T11:57:26.520Z,15.30
2023-01-25T12:00:20.887Z,15.77
2023-01-25T12:03:07.129Z,15.20
2023-01-25T12:05:45.829Z,16.30
2023-01-25T12:08:53.249Z,15.02
2023-01-25T12:11:36.894Z,14.98
2023-01-25T12:14:28.323Z,12.70
2023-01-25T12:17:22.620Z,10.82
2023-01-25T12:20:04.630Z,11.35
2023-01-25T12:22:49.618Z,12.70
2023-01-25T12:26:09.976Z,11.88
2023-01-25T12:28:42.765Z,10.48
2023-01-25T12:31:25.407Z,12.90
2023-01-25T12:33:56.242Z,11.85
2023-01-25T12:36:40.218Z,12.05
2023-01-25T12:39:18.311Z,10.95
2023-01-25T12:42:07.111Z,13.05
2023-01-25T12:44:42.353Z,11.98
2023-01-25T12:47:38.088Z,11.80
2023-01-25T12:50:13.800Z,12.52
2023-01-25T12:52:54.043Z,11.95
2023-01-25T12:55:21.113Z,12.32
2023-01-25T12:57:53.625Z,10.95
2023-01-25T13:00:33.861Z,10.35
2023-01-25T13:03:24.908Z,10.45
2023-01-25T13:06:18.721Z,10.38
2023-01-25T13:09:01.940Z,11.52
2023-01-25T13:11:38.757Z,11.60
2023-01-25T13:14:17.997Z,11.23
2023-01-25T13:17:09.081Z,11.35
2023-01-25T13:19:36.749Z,11.38
2023-01-25T13:22:04.904Z,12.27
2023-01-25T13:24:33.684Z,11.80
2023-01-25T13:27:09.623Z,11.88
2023-01-25T13:29:36.448Z,12.57
2023-01-25T13:32:05.496Z,12.00
2023-01-25T13:34:35.869Z,12.27
2023-01-25T13:37:15.508Z,12.50
2023-01-25T13:39:56.885Z,12.90
2023-01-25T13:42:33.597Z,12.57
2023-01-25T13:45:03.554Z,12.85
2023-01-25T13:47:35.876Z,13.00
2023-01-25T13:50:27.110Z,13.05
2023-01-25T13:53:03.707Z,12.82
2023-01-25T13:55:41.936Z,13.65
2023-01-25T13:58:31.165Z,14.15
2023-01-25T14:01:17.297Z,13.10
2023-01-25T14:03:59.666Z,14.55
2023-01-25T14:06:31.081Z,14.10
2023-01-25T14:09:01.489Z,14.15
2023-01-25T14:11:31.069Z,14.38
2023-01-25T14:14:18.017Z,14.05
2023-01-25T14:16:45.404Z,14.65
2023-01-25T14:19:25.488Z,15.43
2023-01-25T14:22:20.234Z,15.43
2023-01-25T14:25:12.064Z,13.93
2023-01-25T14:27:48.520Z,14.65
2023-01-25T14:30:21.547Z,14.93
2023-01-25T14:32:50.102Z,15.13
2023-01-25T14:35:42.782Z,15.20
2023-01-25T14:38:22.768Z,14.05
2023-01-25T14:40:52.036Z,15.23
2023-01-25T14:43:19.381Z,15.57
2023-01-25T14:45:46.323Z,15.23
2023-01-25T14:48:35.056Z,15.77
2023-01-25T14:51:25.958Z,15.10
2023-01-25T14:54:05.048Z,14.07
2023-01-25T14:57:00.691Z,15.35
2023-01-25T14:59:44.856Z,14.57
2023-01-25T15:02:40.743Z,14.43
2023-01-25T15:05:21.583Z,15.73
2023-01-25T15:07:54.343Z,14.65
2023-01-25T15:10:32.840Z,14.73
2023-01-25T15:13:12.389Z,14.48
2023-01-25T15:15:57.954Z,14.32
2023-01-25T15:18:44.242Z,14.55
2023-01-25T15:23:42.222Z,14.50
2023-01-25T15:26:14.662Z,15.93
2023-01-25T15:28:41.506Z,15.95
2023-01-25T15:31:22.349Z,15.73
2023-01-25T15:33:49.478Z,16.55
2023-01-25T15:36:17.407Z,14.68
2023-01-25T15:38:44.497Z,15.27
2023-01-25T15:41:12.266Z,14.25
2023-01-25T15:43:39.235Z,15.85
2023-01-25T15:46:11.945Z,14.10
2023-01-25T15:48:43.289Z,14.40
2023-01-25T15:51:10.581Z,13.70
2023-01-25T15:53:37.603Z,13.63
2023-01-25T15:56:10.584Z,13.77
2023-01-25T15:58:42.606Z,13.40
2023-01-25T16:01:09.480Z,12.63
2023-01-25T16:03:36.292Z,14.27
2023-01-25T16:06:07.536Z,12.68
2023-01-25T16:08:36.847Z,11.98
2023-01-25T16:11:03.665Z,11.23
2023-01-25T16:13:30.437Z,11.10
2023-01-25T16:15:57.395Z,11.50
2023-01-25T16:18:24.119Z,10.82
2023-01-25T16:20:50.923Z,10.18
2023-01-25T16:23:17.637Z,10.43
2023-01-25T16:25:47.605Z,11.50
2023-01-25T16:28:16.070Z,10.73
2023-01-25T16:30:45.166Z,11.32
2023-01-25T16:33:12.101Z,11.30
2023-01-25T16:35:38.868Z,12.02
2023-01-25T16:38:05.586Z,11.40
2023-01-25T16:40:38.829Z,11.27
2023-01-25T16:43:06.092Z,11.07
2023-01-25T16:45:32.949Z,11.30
2023-01-25T16:48:00.078Z,11.63
2023-01-25T16:50:26.776Z,11.02
2023-01-25T16:52:54.770Z,11.52
2023-01-25T16:55:21.512Z,11.25
2023-01-25T16:57:51.895Z,11.32
2023-01-25T17:00:19.279Z,12.32
2023-01-25T17:02:58.101Z,11.98
2023-01-25T17:05:29.205Z,12.07
2023-01-25T17:07:56.002Z,11.90
2023-01-25T17:10:23.034Z,12.07
2023-01-25T17:12:50.597Z,11.93
2023-01-25T17:15:20.458Z,11.77
2023-01-25T17:17:47.211Z,11.73
2023-01-25T17:20:13.976Z,11.63
2023-01-25T17:22:41.895Z,10.80
2023-01-25T17:25:08.766Z,11.13
2023-01-25T17:27:35.693Z,11.55
2023-01-25T17:30:02.393Z,11.32
2023-01-25T17:32:29.134Z,12.00
2023-01-25T17:34:59.003Z,12.07
2023-01-25T17:37:25.947Z,11.70
2023-01-25T17:39:53.546Z,12.30
2023-01-25T17:42:22.084Z,11.82
2023-01-25T17:44:48.923Z,12.32
2023-01-25T17:47:15.617Z,12.63
2023-01-25T17:49:42.383Z,12.27
2023-01-25T17:52:09.231Z,11.63
2023-01-25T17:54:36.312Z,13.00
2023-01-25T17:57:03.203Z,12.25
2023-01-25T17:59:30.004Z,13.43
2023-01-25T18:01:57.916Z,11.95
2023-01-25T18:04:25.547Z,12.85
2023-01-25T18:06:52.408Z,12.40
2023-01-25T18:09:19.671Z,12.30
2023-01-25T18:11:47.896Z,11.95
2023-01-25T18:14:16.821Z,12.15
2023-01-25T18:16:44.704Z,12.63
2023-01-25T18:19:12.340Z,12.10
2023-01-25T18:21:40.643Z,12.55
2023-01-25T18:24:29.170Z,12.52
2023-01-25T18:27:08.090Z,12.00
2023-01-25T18:29:48.328Z,13.00
2023-01-25T18:32:15.810Z,12.90
2023-01-25T18:34:42.627Z,12.25
2023-01-25T18:37:18.656Z,13.02
2023-01-25T18:39:50.120Z,12.43
2023-01-25T18:42:17.274Z,14.13
2023-01-25T18:44:48.179Z,14.20
2023-01-25T18:47:20.130Z,12.75
2023-01-25T18:49:49.190Z,13.38
2023-01-25T18:52:21.057Z,13.20
2023-01-25T18:54:47.951Z,12.80
2023-01-25T18:57:15.509Z,13.48
2023-01-25T18:59:43.507Z,13.88
2023-01-25T19:02:12.681Z,12.80
2023-01-25T19:04:39.532Z,14.27
2023-01-25T19:07:06.367Z,14.32
2023-01-25T19:09:33.100Z,13.23
2023-01-25T19:11:59.956Z,13.13
2023-01-25T19:14:27.018Z,14.30
2023-01-25T19:16:53.719Z,13.18
2023-01-25T19:19:23.719Z,14.63
2023-01-25T19:21:50.619Z,13.20
2023-01-25T19:24:19.615Z,14.10
2023-01-25T19:26:47.436Z,13.85
2023-01-25T19:29:14.992Z,13.55
2023-01-25T19:31:42.006Z,14.52
2023-01-25T19:34:09.053Z,14.60
2023-01-25T19:36:37.830Z,16.05
2023-01-25T19:39:09.965Z,15.65
2023-01-25T19:41:38.786Z,15.02
2023-01-25T19:44:06.831Z,14.98
2023-01-25T19:46:35.732Z,15.52
2023-01-25T19:49:06.456Z,14.32
2023-01-25T19:51:35.470Z,15.25
2023-01-25T19:54:03.544Z,15.25
2023-01-25T19:56:41.278Z,15.05
2023-01-25T19:59:11.947Z,15.57
2023-01-25T20:01:43.723Z,16.33
2023-01-25T20:04:12.807Z,16.38
2023-01-25T20:06:39.936Z,15.18
2023-01-25T20:09:06.786Z,19.92
2023-01-25T20:11:34.132Z,26.80
2023-01-25T20:14:03.460Z,30.48
2023-01-25T20:16:32.728Z,31.50
2023-01-25T20:19:01.091Z,46.42
2023-01-25T20:21:29.145Z,52.83
2023-01-25T20:24:00.141Z,65.18
2023-01-25T20:26:31.159Z,75.57
2023-01-25T20:28:59.211Z,82.88
2023-01-25T20:31:33.860Z,91.05
2023-01-25T20:34:03.921Z,103.90
2023-01-25T20:36:32.653Z,106.18
2023-01-25T20:38:59.886Z,119.18
2023-01-25T20:41:26.885Z,118.15
2023-01-25T20:44:04.102Z,115.85
2023-01-25T20:46:33.854Z,115.53
2023-01-25T20:49:32.027Z,112.30
2023-01-25T20:51:58.807Z,113.30
2023-01-25T20:54:25.509Z,106.40
2023-01-25T20:56:52.291Z,94.78
2023-01-25T20:59:19.249Z,88.10
2023-01-25T21:01:46.716Z,86.95
2023-01-25T21:04:13.649Z,82.28
2023-01-25T21:06:40.448Z,74.25
2023-01-25T21:09:07.379Z,74.07
2023-01-25T21:11:34.801Z,69.38
2023-01-25T21:14:01.582Z,66.00
2023-01-25T21:16:28.647Z,60.05
2023-01-25T21:18:58.092Z,57.78
2023-01-25T21:21:30.031Z,55.15
2023-01-25T21:24:00.151Z,48.50
2023-01-25T21:26:30.062Z,49.88
2023-01-25T21:28:58.954Z,45.70
2023-01-25T21:31:28.467Z,43.80
2023-01-25T21:33:55.765Z,43.00
2023-01-25T21:36:22.848Z,40.47
2023-01-25T21:38:52.057Z,39.20
2023-01-25T21:41:20.526Z,35.13
2023-01-25T21:44:07.110Z,35.08
2023-01-25T21:46:34.311Z,30.52
2023-01-25T21:49:22.190Z,31.77
2023-01-25T21:51:51.507Z,32.25
2023-01-25T21:54:26.493Z,31.52
2023-01-25T21:56:55.653Z,30.20
2023-01-25T21:59:22.888Z,26.60
2023-01-25T22:01:50.719Z,24.10
2023-01-25T22:04:19.023Z,21.48
2023-01-25T22:06:46.148Z,22.08
2023-01-25T22:09:13.742Z,19.77
2023-01-25T22:11:40.776Z,19.70
2023-01-25T22:14:07.890Z,20.17
2023-01-25T22:16:34.904Z,19.20
2023-01-25T22:19:01.645Z,18.20
2023-01-25T22:21:31.879Z,18.98
2023-01-25T22:24:00.348Z,19.35
2023-01-25T22:26:32.923Z,18.40
2023-01-25T22:29:00.612Z,18.55
2023-01-25T22:31:29.932Z,19.35
2023-01-25T22:33:58.156Z,18.98
2023-01-25T22:36:27.892Z,19.67
2023-01-25T22:38:54.859Z,18.98
2023-01-25T22:41:30.284Z,18.52
2023-01-25T22:43:57.922Z,19.02
2023-01-25T22:46:27.561Z,18.92
2023-01-25T22:48:54.481Z,17.10
2023-01-25T22:51:29.285Z,18.25
2023-01-25T22:53:57.373Z,18.92
2023-01-25T22:56:27.575Z,17.98
2023-01-25T22:58:54.917Z,18.67
2023-01-25T23:01:31.040Z,18.15
2023-01-25T23:03:58.281Z,19.13
2023-01-25T23:06:28.124Z,18.90
2023-01-25T23:08:56.835Z,18.10
2023-01-25T23:11:25.023Z,17.02
2023-01-25T23:14:11.602Z,17.98
2023-01-25T23:16:38.407Z,16.88
2023-01-25T23:19:05.911Z,18.13
2023-01-25T23:21:32.651Z,16.98
2023-01-25T23:24:01.561Z,17.95
2023-01-25T23:26:39.039Z,15.77
2023-01-25T23:29:09.300Z,16.83
2023-01-25T23:31:36.698Z,16.25
2023-01-25T23:34:06.110Z,16.20
2023-01-25T23:36:35.675Z,15.85
2023-01-25T23:39:02.871Z,16.00
2023-01-25T23:41:30.615Z,16.20
2023-01-25T23:43:58.190Z,16.50
2023-01-25T23:46:25.511Z,16.45
2023-01-25T23:48:52.457Z,18.00
2023-01-25T23:51:20.117Z,17.30
2023-01-25T23:53:46.941Z,18.13
2023-01-25T23:56:16.972Z,17.38
2023-01-25T23:58:44.364Z,19.27
